createdAt,value
2019-03-01T00:01:22.581Z,77.86
2019-03-01T00:03:54.074Z,78.55
2019-03-01T00:06:27.166Z,78.50
2019-03-01T00:09:07.430Z,78.20
2019-03-01T00:11:47.981Z,78.19
2019-03-01T00:14:22.324Z,78.52
2019-03-01T00:17:22.534Z,78.41
2019-03-01T00:20:28.843Z,78.26
2019-03-01T00:23:03.233Z,77.70
2019-03-01T00:25:53.077Z,78.08
2019-03-01T00:28:30.513Z,77.92
2019-03-01T00:31:11.176Z,77.85
2019-03-01T00:33:51.546Z,77.65
2019-03-01T00:36:51.800Z,77.35
2019-03-01T00:39:32.299Z,77.60
2019-03-01T00:42:20.381Z,77.59
2019-03-01T00:44:48.950Z,77.92
2019-03-01T00:47:17.389Z,78.16
2019-03-01T00:49:45.872Z,77.04
2019-03-01T00:52:14.418Z,76.62
2019-03-01T00:54:42.898Z,76.06
2019-03-01T00:57:11.362Z,76.08
2019-03-01T00:59:39.827Z,76.04
2019-03-01T01:02:08.299Z,76.36
2019-03-01T01:04:36.730Z,76.57
2019-03-01T01:07:05.212Z,76.62
2019-03-01T01:09:33.636Z,76.19
2019-03-01T01:12:02.246Z,75.88
2019-03-01T01:14:30.708Z,75.14
2019-03-01T01:16:59.164Z,75.96
2019-03-01T01:19:27.662Z,75.99
2019-03-01T01:21:56.144Z,75.33
2019-03-01T01:24:24.590Z,75.59
2019-03-01T01:26:53.028Z,75.68
2019-03-01T01:29:21.503Z,75.53
2019-03-01T01:31:49.952Z,76.16
2019-03-01T01:34:18.398Z,76.65
2019-03-01T01:36:46.864Z,76.24
2019-03-01T01:39:16.364Z,75.95
2019-03-01T01:41:44.827Z,75.82
2019-03-01T01:44:13.295Z,76.50
2019-03-01T01:46:41.754Z,76.00
2019-03-01T01:49:10.196Z,75.73
2019-03-01T01:51:38.672Z,75.84
2019-03-01T01:54:07.142Z,76.10
2019-03-01T01:56:35.603Z,76.66
2019-03-01T01:59:04.062Z,77.03
2019-03-01T02:01:32.548Z,76.77
2019-03-01T02:04:01.000Z,78.15
2019-03-01T02:06:29.604Z,77.78
2019-03-01T02:08:58.070Z,77.52
2019-03-01T02:11:26.516Z,77.84
2019-03-01T02:13:54.966Z,78.03
2019-03-01T02:16:23.428Z,78.11
2019-03-01T02:18:57.827Z,77.67
2019-03-01T02:21:22.052Z,77.99
2019-03-01T02:23:50.520Z,77.99
2019-03-01T02:26:18.968Z,77.95
2019-03-01T02:28:47.432Z,77.70
2019-03-01T02:31:16.059Z,77.23
2019-03-01T02:33:44.542Z,77.22
2019-03-01T02:36:13.002Z,77.48
2019-03-01T02:38:41.464Z,77.85
2019-03-01T02:41:09.946Z,77.93
2019-03-01T02:43:38.385Z,78.49
2019-03-01T02:46:06.808Z,78.76
2019-03-01T02:48:35.287Z,78.68
2019-03-01T02:51:03.765Z,78.43
2019-03-01T02:53:32.202Z,78.21
2019-03-01T02:56:00.652Z,77.83
2019-03-01T02:58:29.094Z,77.77
2019-03-01T03:00:57.556Z,77.50
2019-03-01T03:03:26.001Z,77.38
2019-03-01T03:05:59.235Z,77.40
2019-03-01T03:08:27.681Z,77.65
2019-03-01T03:10:56.168Z,77.66
2019-03-01T03:13:24.609Z,78.03
2019-03-01T03:15:54.244Z,77.65
2019-03-01T03:18:23.154Z,77.23
2019-03-01T03:20:51.627Z,77.71
2019-03-01T03:23:20.101Z,77.38
2019-03-01T03:25:48.533Z,77.38
2019-03-01T03:28:16.992Z,77.40
2019-03-01T03:30:45.447Z,76.76
2019-03-01T03:33:13.913Z,76.64
2019-03-01T03:35:43.719Z,77.28
2019-03-01T03:38:12.158Z,77.13
2019-03-01T03:40:40.619Z,77.19
2019-03-01T03:43:09.070Z,76.97
2019-03-01T03:45:37.536Z,76.93
2019-03-01T03:48:05.974Z,77.06
2019-03-01T03:50:34.715Z,76.79
2019-03-01T03:53:03.227Z,77.37
2019-03-01T03:55:31.622Z,76.89
2019-03-01T03:58:00.085Z,77.16
2019-03-01T04:00:28.535Z,77.22
2019-03-01T04:02:56.983Z,76.80
2019-03-01T04:05:26.947Z,77.01
2019-03-01T04:07:55.389Z,77.69
2019-03-01T04:10:23.867Z,79.07
2019-03-01T04:12:52.299Z,78.94
2019-03-01T04:15:20.803Z,79.29
2019-03-01T04:17:49.213Z,79.54
2019-03-01T04:20:18.751Z,79.58
2019-03-01T04:22:47.241Z,79.42
2019-03-01T04:25:15.682Z,79.56
2019-03-01T04:27:44.157Z,79.68
2019-03-01T04:30:14.973Z,79.51
2019-03-01T04:32:43.433Z,78.99
2019-03-01T04:35:12.041Z,78.69
2019-03-01T04:37:40.488Z,79.07
2019-03-01T04:40:11.297Z,78.92
2019-03-01T04:42:39.740Z,78.86
2019-03-01T04:45:10.860Z,79.04
2019-03-01T04:47:39.335Z,78.86
2019-03-01T04:50:10.380Z,78.60
2019-03-01T04:52:39.042Z,79.01
2019-03-01T04:55:10.302Z,79.55
2019-03-01T04:57:38.756Z,79.25
2019-03-01T05:00:10.270Z,79.03
2019-03-01T05:02:38.709Z,79.24
2019-03-01T05:05:07.264Z,79.20
2019-03-01T05:07:35.720Z,79.12
2019-03-01T05:10:06.309Z,78.93
2019-03-01T05:12:34.782Z,79.07
2019-03-01T05:15:03.626Z,79.45
2019-03-01T05:17:32.190Z,78.83
2019-03-01T05:20:01.007Z,78.15
2019-03-01T05:22:29.455Z,78.57
2019-03-01T05:24:57.907Z,79.02
2019-03-01T05:27:26.370Z,79.41
2019-03-01T05:29:54.861Z,79.89
2019-03-01T05:32:23.305Z,80.44
2019-03-01T05:34:51.789Z,81.17
2019-03-01T05:37:20.243Z,81.39
2019-03-01T05:39:48.678Z,82.35
2019-03-01T05:42:17.145Z,82.56
2019-03-01T05:44:45.582Z,82.63
2019-03-01T05:47:14.044Z,82.72
2019-03-01T05:49:42.524Z,83.53
2019-03-01T05:52:11.006Z,83.90
2019-03-01T05:54:39.459Z,83.99
2019-03-01T05:57:07.897Z,84.76
2019-03-01T05:59:36.371Z,84.97
2019-03-01T06:02:07.889Z,85.27
2019-03-01T06:04:42.222Z,85.48
2019-03-01T06:07:28.689Z,84.88
2019-03-01T06:10:00.356Z,85.90
2019-03-01T06:12:34.511Z,86.08
2019-03-01T06:15:34.291Z,86.58
2019-03-01T06:18:38.868Z,86.71
2019-03-01T06:21:29.624Z,87.28
2019-03-01T06:24:03.665Z,86.78
2019-03-01T06:26:47.261Z,86.67
2019-03-01T06:29:24.331Z,87.21
2019-03-01T06:32:13.802Z,87.53
2019-03-01T06:34:57.054Z,87.76
2019-03-01T06:37:46.364Z,87.75
2019-03-01T06:40:30.892Z,87.56
2019-03-01T06:43:10.734Z,87.25
2019-03-01T06:45:48.367Z,87.22
2019-03-01T06:48:18.499Z,86.82
2019-03-01T06:50:48.653Z,86.98
2019-03-01T06:53:17.119Z,86.96
2019-03-01T06:55:45.657Z,86.85
2019-03-01T06:58:17.566Z,86.29
2019-03-01T07:00:50.376Z,87.22
2019-03-01T07:03:17.883Z,86.96
2019-03-01T07:05:46.407Z,86.62
2019-03-01T07:08:14.926Z,86.93
2019-03-01T07:10:43.379Z,86.70
2019-03-01T07:13:11.859Z,86.21
2019-03-01T07:15:40.317Z,86.00
2019-03-01T07:18:08.811Z,85.76
2019-03-01T07:20:37.266Z,85.88
2019-03-01T07:23:05.833Z,85.73
2019-03-01T07:25:34.301Z,85.80
2019-03-01T07:28:02.786Z,86.48
2019-03-01T07:30:31.251Z,86.79
2019-03-01T07:32:59.699Z,86.88
2019-03-01T07:35:28.181Z,86.75
2019-03-01T07:37:56.629Z,86.48
2019-03-01T07:40:25.088Z,86.50
2019-03-01T07:42:53.587Z,86.04
2019-03-01T07:45:22.121Z,85.85
2019-03-01T07:47:50.626Z,86.19
2019-03-01T07:50:19.070Z,86.08
2019-03-01T07:52:47.543Z,86.10
2019-03-01T07:55:16.019Z,86.33
2019-03-01T07:57:46.555Z,83.93
2019-03-01T08:00:17.905Z,82.65
2019-03-01T08:02:46.338Z,82.08
2019-03-01T08:05:16.399Z,81.36
2019-03-01T08:07:55.413Z,81.37
2019-03-01T08:10:20.922Z,81.27
2019-03-01T08:12:47.461Z,81.08
2019-03-01T08:15:17.403Z,80.73
2019-03-01T08:17:45.887Z,80.57
2019-03-01T08:20:15.968Z,80.48
2019-03-01T08:22:48.559Z,80.84
2019-03-01T08:25:14.718Z,81.03
2019-03-01T08:27:46.314Z,81.08
2019-03-01T08:30:15.672Z,80.84
2019-03-01T08:32:44.334Z,80.67
2019-03-01T08:35:14.039Z,80.62
2019-03-01T08:37:42.514Z,80.42
2019-03-01T08:40:14.652Z,81.30
2019-03-01T08:42:43.977Z,80.80
2019-03-01T08:45:15.101Z,79.99
2019-03-01T08:47:43.567Z,79.44
2019-03-01T08:50:16.509Z,79.37
2019-03-01T08:52:45.813Z,78.96
2019-03-01T08:55:16.863Z,79.37
2019-03-01T08:57:45.299Z,79.72
2019-03-01T09:00:16.736Z,80.96
2019-03-01T09:02:45.202Z,80.78
2019-03-01T09:05:14.126Z,80.84
2019-03-01T09:07:42.597Z,80.34
2019-03-01T09:10:14.064Z,79.54
2019-03-01T09:12:42.522Z,80.09
2019-03-01T09:15:13.343Z,80.14
2019-03-01T09:17:41.864Z,80.68
2019-03-01T09:20:12.567Z,80.37
2019-03-01T09:22:41.013Z,80.52
2019-03-01T09:25:11.721Z,80.53
2019-03-01T09:27:40.209Z,81.29
2019-03-01T09:30:17.590Z,81.06
2019-03-01T09:32:46.126Z,81.59
2019-03-01T09:35:19.718Z,80.68
2019-03-01T09:37:48.158Z,80.42
2019-03-01T09:40:16.611Z,80.49
2019-03-01T09:42:47.455Z,80.18
2019-03-01T09:45:15.292Z,79.85
2019-03-01T09:47:43.743Z,80.35
2019-03-01T09:50:12.767Z,80.63
2019-03-01T09:52:42.877Z,80.73
2019-03-01T09:55:12.651Z,80.91
2019-03-01T09:57:41.144Z,80.63
2019-03-01T10:00:27.880Z,80.70
2019-03-01T10:02:58.453Z,80.82
2019-03-01T10:05:26.510Z,79.96
2019-03-01T10:07:54.991Z,80.18
2019-03-01T10:10:29.237Z,80.36
2019-03-01T10:12:57.696Z,81.01
2019-03-01T10:15:26.215Z,80.62
2019-03-01T10:17:54.731Z,81.21
2019-03-01T10:20:23.240Z,80.34
2019-03-01T10:22:51.699Z,81.08
2019-03-01T10:25:21.167Z,81.01
2019-03-01T10:27:49.828Z,81.23
2019-03-01T10:30:21.346Z,80.95
2019-03-01T10:32:49.867Z,80.63
2019-03-01T10:35:18.502Z,80.71
2019-03-01T10:37:47.429Z,80.78
2019-03-01T10:40:23.311Z,80.37
2019-03-01T10:42:51.820Z,80.52
2019-03-01T10:45:25.291Z,80.47
2019-03-01T10:47:53.782Z,80.05
2019-03-01T10:50:22.247Z,80.06
2019-03-01T10:52:50.691Z,79.80
2019-03-01T10:55:20.106Z,79.94
2019-03-01T10:57:48.686Z,81.59
2019-03-01T11:00:26.186Z,82.07
2019-03-01T11:02:55.477Z,83.09
2019-03-01T11:05:24.319Z,83.66
2019-03-01T11:07:54.010Z,83.68
2019-03-01T11:10:25.443Z,84.11
2019-03-01T11:12:53.896Z,84.36
2019-03-01T11:15:22.543Z,84.85
2019-03-01T11:17:50.993Z,84.87
2019-03-01T11:20:20.769Z,85.65
2019-03-01T11:22:49.461Z,86.50
2019-03-01T11:25:22.888Z,86.79
2019-03-01T11:27:51.503Z,86.83
2019-03-01T11:30:25.514Z,87.52
2019-03-01T11:32:53.990Z,87.27
2019-03-01T11:35:22.507Z,86.87
2019-03-01T11:37:50.992Z,87.26
2019-03-01T11:40:34.063Z,86.74
2019-03-01T11:43:02.672Z,86.24
2019-03-01T11:45:31.131Z,87.19
2019-03-01T11:47:59.598Z,86.39
2019-03-01T11:50:28.089Z,86.41
2019-03-01T11:52:56.531Z,86.79
2019-03-01T11:55:25.047Z,85.81
2019-03-01T11:57:53.587Z,86.02
2019-03-01T12:00:26.126Z,85.44
2019-03-01T12:02:54.585Z,85.16
2019-03-01T12:05:23.073Z,85.07
2019-03-01T12:07:51.540Z,85.32
2019-03-01T12:10:28.644Z,84.53
2019-03-01T12:12:57.112Z,84.65
2019-03-01T12:15:25.712Z,84.40
2019-03-01T12:17:54.166Z,84.05
2019-03-01T12:20:31.315Z,84.74
2019-03-01T12:22:59.939Z,84.86
2019-03-01T12:25:28.399Z,84.80
2019-03-01T12:27:56.848Z,84.00
2019-03-01T12:30:28.060Z,83.78
2019-03-01T12:32:56.561Z,83.87
2019-03-01T12:35:25.071Z,83.40
2019-03-01T12:37:53.506Z,82.38
2019-03-01T12:40:29.670Z,81.80
2019-03-01T12:42:58.182Z,81.27
2019-03-01T12:45:26.651Z,81.07
2019-03-01T12:47:55.158Z,81.11
2019-03-01T12:50:23.628Z,81.18
2019-03-01T12:52:52.072Z,81.22
2019-03-01T12:55:25.663Z,80.90
2019-03-01T12:57:54.136Z,81.69
2019-03-01T13:00:33.445Z,82.07
2019-03-01T13:03:05.351Z,81.73
2019-03-01T13:05:32.102Z,81.98
2019-03-01T13:08:00.547Z,81.90
2019-03-01T13:10:40.365Z,81.65
2019-03-01T13:13:08.575Z,81.12
2019-03-01T13:15:37.244Z,81.75
2019-03-01T13:18:05.702Z,81.94
2019-03-01T13:20:37.267Z,81.66
2019-03-01T13:23:08.664Z,81.23
2019-03-01T13:25:37.128Z,80.91
2019-03-01T13:31:01.150Z,81.79
2019-03-01T13:33:29.594Z,81.85
2019-03-01T13:35:59.961Z,82.75
2019-03-01T13:38:30.393Z,82.38
2019-03-01T13:40:58.777Z,83.06
2019-03-01T13:43:28.653Z,83.23
2019-03-01T13:45:57.171Z,83.37
2019-03-01T13:48:25.606Z,83.79
2019-03-01T13:50:54.077Z,83.57
2019-03-01T13:53:22.899Z,83.51
2019-03-01T13:55:51.349Z,84.35
2019-03-01T13:58:20.456Z,84.33
2019-03-01T14:00:49.653Z,83.11
2019-03-01T14:03:20.795Z,80.77
2019-03-01T14:05:51.179Z,79.43
2019-03-01T14:08:18.653Z,78.16
2019-03-01T14:10:47.111Z,77.34
2019-03-01T14:13:15.777Z,75.69
2019-03-01T14:15:44.410Z,74.48
2019-03-01T14:18:12.861Z,74.35
2019-03-01T14:20:41.328Z,74.14
2019-03-01T14:23:09.776Z,73.11
2019-03-01T14:25:38.614Z,73.18
2019-03-01T14:28:08.505Z,72.80
2019-03-01T14:30:36.966Z,73.14
2019-03-01T14:33:05.424Z,72.11
2019-03-01T14:35:33.906Z,71.17
2019-03-01T14:38:02.380Z,70.47
2019-03-01T14:40:30.849Z,70.10
2019-03-01T14:42:59.296Z,70.50
2019-03-01T14:45:32.559Z,71.06
2019-03-01T14:48:01.500Z,70.94
2019-03-01T14:50:33.665Z,70.93
2019-03-01T14:53:01.262Z,69.92
2019-03-01T14:55:38.983Z,69.86
2019-03-01T14:58:19.018Z,69.66
2019-03-01T15:00:53.390Z,69.60
2019-03-01T15:03:28.080Z,69.73
2019-03-01T15:05:56.559Z,69.76
2019-03-01T15:08:25.000Z,69.59
2019-03-01T15:10:53.614Z,69.33
2019-03-01T15:13:22.074Z,68.79
2019-03-01T15:15:50.584Z,67.88
2019-03-01T15:18:19.059Z,68.28
2019-03-01T15:20:47.514Z,67.44
2019-03-01T15:23:15.946Z,67.52
2019-03-01T15:25:47.468Z,67.07
2019-03-01T15:28:16.659Z,66.81
2019-03-01T15:30:46.430Z,66.13
2019-03-01T15:33:15.113Z,65.53
2019-03-01T15:35:43.601Z,65.29
2019-03-01T15:38:12.040Z,65.12
2019-03-01T15:40:40.492Z,65.65
2019-03-01T15:43:09.200Z,65.49
2019-03-01T15:45:39.875Z,65.11
2019-03-01T15:48:08.010Z,64.69
2019-03-01T15:50:36.696Z,65.04
2019-03-01T15:53:05.148Z,64.83
2019-03-01T15:55:33.787Z,64.92
2019-03-01T15:58:02.230Z,64.73
2019-03-01T16:00:30.687Z,64.71
2019-03-01T16:02:59.126Z,64.23
2019-03-01T16:05:27.659Z,64.02
2019-03-01T16:07:56.143Z,63.98
2019-03-01T16:10:24.639Z,63.39
2019-03-01T16:12:53.099Z,63.82
2019-03-01T16:15:21.578Z,64.26
2019-03-01T16:17:50.046Z,64.52
2019-03-01T16:20:19.938Z,63.83
2019-03-01T16:22:51.090Z,64.03
2019-03-01T16:25:20.643Z,63.89
2019-03-01T16:27:50.752Z,63.92
2019-03-01T16:30:20.791Z,63.17
2019-03-01T16:32:50.620Z,63.50
2019-03-01T16:35:20.427Z,63.06
2019-03-01T16:37:50.582Z,63.32
2019-03-01T16:40:20.591Z,63.71
2019-03-01T16:42:54.132Z,63.47
2019-03-01T16:45:21.161Z,63.16
2019-03-01T16:47:50.431Z,63.12
2019-03-01T16:50:20.311Z,62.79
2019-03-01T16:52:48.760Z,62.83
2019-03-01T16:55:19.647Z,62.22
2019-03-01T16:57:51.874Z,62.29
2019-03-01T17:00:19.747Z,62.01
2019-03-01T17:02:49.825Z,61.89
2019-03-01T17:05:18.257Z,61.74
2019-03-01T17:07:46.806Z,61.74
2019-03-01T17:10:20.158Z,61.39
2019-03-01T17:12:48.891Z,61.12
2019-03-01T17:15:23.747Z,61.01
2019-03-01T17:17:52.200Z,60.70
2019-03-01T17:20:20.645Z,60.29
2019-03-01T17:22:49.907Z,60.56
2019-03-01T17:25:19.546Z,60.19
2019-03-01T17:27:49.621Z,60.17
2019-03-01T17:30:21.071Z,60.25
2019-03-01T17:32:49.577Z,60.58
2019-03-01T17:35:18.199Z,59.85
2019-03-01T17:37:46.647Z,59.46
2019-03-01T17:40:19.873Z,59.91
2019-03-01T17:42:48.541Z,60.05
2019-03-01T17:45:22.238Z,60.66
2019-03-01T17:47:50.849Z,60.84
2019-03-01T17:50:19.369Z,61.12
2019-03-01T17:52:47.798Z,61.11
2019-03-01T17:55:24.630Z,61.26
2019-03-01T17:57:53.289Z,61.61
2019-03-01T18:00:43.609Z,61.98
2019-03-01T18:03:12.617Z,62.17
2019-03-01T18:05:41.530Z,62.24
2019-03-01T18:08:10.081Z,62.11
2019-03-01T18:10:38.527Z,61.97
2019-03-01T18:13:07.057Z,61.75
2019-03-01T18:15:35.499Z,61.97
2019-03-01T18:18:04.116Z,62.32
2019-03-01T18:20:33.973Z,62.45
2019-03-01T18:23:03.183Z,62.31
2019-03-01T18:25:31.805Z,63.01
2019-03-01T18:28:00.279Z,63.08
2019-03-01T18:30:31.022Z,63.55
2019-03-01T18:32:59.448Z,63.47
2019-03-01T18:35:27.931Z,63.33
2019-03-01T18:37:56.386Z,63.36
2019-03-01T18:40:24.850Z,63.41
2019-03-01T18:42:53.363Z,63.75
2019-03-01T18:45:23.170Z,64.07
2019-03-01T18:47:51.611Z,64.02
2019-03-01T18:50:27.658Z,64.55
2019-03-01T18:52:55.946Z,64.74
2019-03-01T18:55:24.402Z,65.32
2019-03-01T18:57:52.877Z,65.44
2019-03-01T19:00:32.541Z,65.31
2019-03-01T19:03:00.982Z,65.53
2019-03-01T19:05:31.931Z,65.79
2019-03-01T19:08:00.925Z,65.78
2019-03-01T19:10:30.657Z,65.90
2019-03-01T19:12:59.127Z,65.80
2019-03-01T19:15:27.548Z,66.23
2019-03-01T19:17:56.252Z,66.49
2019-03-01T19:20:27.817Z,66.40
2019-03-01T19:22:56.259Z,66.47
2019-03-01T19:25:25.465Z,66.70
2019-03-01T19:27:55.181Z,66.73
2019-03-01T19:30:24.936Z,66.91
2019-03-01T19:32:53.350Z,66.76
2019-03-01T19:35:28.574Z,67.09
2019-03-01T19:37:51.987Z,67.37
2019-03-01T19:40:22.747Z,67.71
2019-03-01T19:42:51.220Z,67.99
2019-03-01T19:45:20.311Z,67.73
2019-03-01T19:47:48.983Z,67.80
2019-03-01T19:50:25.007Z,67.87
2019-03-01T19:52:53.345Z,68.31
2019-03-01T19:55:21.844Z,68.15
2019-03-01T19:57:50.296Z,68.14
2019-03-01T20:00:20.564Z,67.63
2019-03-01T20:02:49.051Z,68.16
2019-03-01T20:05:20.271Z,68.05
2019-03-01T20:07:51.840Z,67.88
2019-03-01T20:10:19.231Z,67.58
2019-03-01T20:12:47.655Z,67.18
2019-03-01T20:15:24.432Z,67.39
2019-03-01T20:17:53.530Z,67.09
2019-03-01T20:20:23.847Z,67.02
2019-03-01T20:22:54.349Z,67.62
2019-03-01T20:25:22.522Z,67.54
2019-03-01T20:27:51.142Z,67.17
2019-03-01T20:30:30.698Z,67.32
2019-03-01T20:32:59.300Z,67.36
2019-03-01T20:35:28.619Z,67.83
2019-03-01T20:38:00.229Z,67.87
2019-03-01T20:40:28.251Z,68.03
2019-03-01T20:43:00.525Z,67.80
2019-03-01T20:45:31.807Z,67.86
2019-03-01T20:48:00.277Z,67.81
2019-03-01T20:50:28.875Z,68.19
2019-03-01T20:52:57.309Z,68.43
2019-03-01T20:55:25.733Z,68.50
2019-03-01T20:57:54.192Z,68.40
2019-03-01T21:00:26.167Z,68.30
2019-03-01T21:02:55.155Z,68.24
2019-03-01T21:05:24.964Z,68.64
2019-03-01T21:07:54.869Z,68.54
2019-03-01T21:10:24.693Z,68.14
2019-03-01T21:12:53.177Z,68.28
2019-03-01T21:15:22.076Z,68.69
2019-03-01T21:17:53.061Z,68.21
2019-03-01T21:20:21.115Z,68.01
2019-03-01T21:22:49.578Z,68.93
2019-03-01T21:25:24.023Z,68.74
2019-03-01T21:27:52.543Z,68.65
2019-03-01T21:30:29.723Z,68.66
2019-03-01T21:32:58.258Z,68.70
2019-03-01T21:35:26.699Z,68.52
2019-03-01T21:37:55.228Z,68.54
2019-03-01T21:40:23.670Z,68.29
2019-03-01T21:42:52.764Z,68.09
2019-03-01T21:45:23.929Z,67.60
2019-03-01T21:47:52.359Z,67.86
2019-03-01T21:50:21.030Z,67.77
2019-03-01T21:52:49.462Z,68.15
2019-03-01T21:55:28.927Z,67.99
2019-03-01T21:57:58.983Z,68.26
2019-03-01T22:00:31.210Z,67.91
2019-03-01T22:02:59.561Z,68.11
2019-03-01T22:05:27.999Z,68.04
2019-03-01T22:07:56.425Z,68.04
2019-03-01T22:10:24.895Z,68.23
2019-03-01T22:12:53.329Z,67.99
2019-03-01T22:15:27.104Z,67.76
2019-03-01T22:17:56.235Z,68.19
2019-03-01T22:20:24.840Z,68.62
2019-03-01T22:22:53.376Z,68.45
2019-03-01T22:25:21.819Z,68.41
2019-03-01T22:27:50.256Z,68.20
2019-03-01T22:30:34.680Z,68.12
2019-03-01T22:33:03.135Z,68.21
2019-03-01T22:35:31.562Z,68.33
2019-03-01T22:38:01.089Z,68.49
2019-03-01T22:40:30.229Z,69.62
2019-03-01T22:42:58.658Z,68.58
2019-03-01T22:45:27.143Z,68.38
2019-03-01T22:47:55.662Z,68.52
2019-03-01T22:50:24.109Z,68.74
2019-03-01T22:52:52.592Z,69.02
2019-03-01T22:55:21.477Z,68.69
2019-03-01T22:57:49.910Z,68.91
2019-03-01T23:00:48.165Z,68.91
2019-03-01T23:03:18.824Z,68.70
2019-03-01T23:05:48.069Z,69.31
2019-03-01T23:08:16.534Z,69.14
2019-03-01T23:10:44.977Z,69.32
2019-03-01T23:13:16.987Z,69.26
2019-03-01T23:15:44.561Z,69.35
2019-03-01T23:18:13.089Z,69.21
2019-03-01T23:20:41.790Z,69.03
2019-03-01T23:23:10.244Z,69.65
2019-03-01T23:25:38.683Z,69.61
2019-03-01T23:28:09.336Z,69.59
2019-03-01T23:30:37.850Z,69.59
2019-03-01T23:33:06.280Z,69.39
2019-03-01T23:35:34.880Z,69.43
2019-03-01T23:38:03.363Z,69.35
2019-03-01T23:40:32.692Z,69.71
2019-03-01T23:43:01.968Z,69.56
2019-03-01T23:45:30.423Z,69.25
2019-03-01T23:47:58.878Z,69.26
2019-03-01T23:50:27.390Z,69.89
2019-03-01T23:52:58.754Z,69.85
2019-03-01T23:55:26.028Z,70.16
2019-03-01T23:57:54.491Z,69.90
